createdAt,value
2023-08-21T00:00:37.922Z,8.25
2023-08-21T00:02:09.407Z,9.82
2023-08-21T00:03:41.006Z,8.20
2023-08-21T00:05:12.612Z,9.60
2023-08-21T00:06:44.303Z,8.80
2023-08-21T00:08:15.764Z,10.25
2023-08-21T00:09:47.341Z,8.70
2023-08-21T00:11:18.928Z,8.57
2023-08-21T00:12:50.444Z,8.15
2023-08-21T00:14:22.086Z,8.27
2023-08-21T00:15:53.548Z,8.90
2023-08-21T00:17:25.043Z,8.60
2023-08-21T00:18:56.986Z,8.35
2023-08-21T00:20:28.603Z,9.15
2023-08-21T00:22:00.670Z,8.50
2023-08-21T00:23:32.493Z,8.52
2023-08-21T00:25:04.790Z,9.40
2023-08-21T00:26:36.367Z,8.63
2023-08-21T00:28:07.958Z,10.57
2023-08-21T00:29:39.437Z,8.57
2023-08-21T00:31:10.962Z,9.10
2023-08-21T00:32:43.016Z,9.18
2023-08-21T00:34:14.664Z,9.77
2023-08-21T00:35:46.461Z,8.93
2023-08-21T00:37:17.941Z,8.60
2023-08-21T00:38:49.521Z,9.50
2023-08-21T00:40:21.323Z,8.52
2023-08-21T00:41:52.943Z,9.20
2023-08-21T00:43:24.506Z,8.57
2023-08-21T00:44:56.018Z,8.85
2023-08-21T00:46:28.384Z,8.70
2023-08-21T00:48:00.117Z,8.63
2023-08-21T00:49:31.886Z,8.90
2023-08-21T00:51:04.028Z,10.43
2023-08-21T00:52:36.449Z,9.40
2023-08-21T00:54:08.443Z,9.00
2023-08-21T00:55:41.345Z,8.75
2023-08-21T00:57:13.263Z,8.65
2023-08-21T00:58:44.808Z,10.52
2023-08-21T01:00:16.359Z,9.23
2023-08-21T01:01:47.922Z,8.75
2023-08-21T01:03:19.726Z,10.48
2023-08-21T01:04:51.394Z,8.73
2023-08-21T01:06:22.962Z,8.50
2023-08-21T01:07:57.276Z,9.13
2023-08-21T01:09:32.209Z,10.02
2023-08-21T01:11:07.089Z,8.93
2023-08-21T01:12:45.021Z,8.57
2023-08-21T01:14:41.978Z,8.45
2023-08-21T01:16:14.864Z,8.63
2023-08-21T01:17:47.206Z,8.70
2023-08-21T01:19:25.755Z,8.82
2023-08-21T01:20:59.204Z,9.95
2023-08-21T01:22:37.885Z,8.63
2023-08-21T01:24:09.703Z,9.25
2023-08-21T01:25:41.150Z,8.70
2023-08-21T01:27:14.838Z,8.38
2023-08-21T01:28:46.407Z,9.88
2023-08-21T01:30:18.009Z,8.55
2023-08-21T01:31:55.606Z,9.18
2023-08-21T01:33:27.620Z,9.32
2023-08-21T01:34:59.265Z,9.43
2023-08-21T01:36:30.770Z,9.32
2023-08-21T01:38:03.105Z,9.38
2023-08-21T01:39:34.821Z,9.93
2023-08-21T01:41:06.276Z,10.70
2023-08-21T01:42:39.512Z,12.30
2023-08-21T01:44:11.201Z,9.73
2023-08-21T01:45:42.782Z,9.45
2023-08-21T01:47:16.185Z,10.50
2023-08-21T01:48:48.277Z,9.40
2023-08-21T01:50:19.858Z,9.60
2023-08-21T01:51:51.470Z,10.20
2023-08-21T01:53:22.980Z,10.15
2023-08-21T01:54:54.543Z,10.18
2023-08-21T01:56:26.107Z,9.18
2023-08-21T01:57:57.607Z,9.50
2023-08-21T01:59:29.097Z,10.23
2023-08-21T02:01:00.583Z,10.32
2023-08-21T02:02:32.457Z,10.43
2023-08-21T02:04:04.284Z,10.40
2023-08-21T02:05:40.136Z,10.45
2023-08-21T02:07:11.777Z,10.05
2023-08-21T02:08:43.321Z,9.75
2023-08-21T02:10:14.864Z,9.57
2023-08-21T02:11:46.347Z,10.13
2023-08-21T02:13:19.085Z,9.80
2023-08-21T02:14:50.603Z,10.32
2023-08-21T02:16:22.945Z,10.10
2023-08-21T02:17:55.607Z,10.45
2023-08-21T02:19:27.189Z,10.15
2023-08-21T02:20:58.724Z,10.13
2023-08-21T02:22:30.235Z,8.93
2023-08-21T02:24:01.709Z,9.35
2023-08-21T02:25:33.363Z,8.82
2023-08-21T02:27:04.845Z,9.18
2023-08-21T02:28:36.538Z,9.38
2023-08-21T02:30:08.414Z,9.45
2023-08-21T02:31:40.050Z,8.75
2023-08-21T02:33:11.686Z,9.73
2023-08-21T02:34:44.061Z,8.45
2023-08-21T02:36:15.566Z,9.00
2023-08-21T02:37:47.093Z,9.02
2023-08-21T02:39:18.635Z,9.20
2023-08-21T02:40:50.139Z,8.02
2023-08-21T02:42:21.609Z,8.38
2023-08-21T02:43:53.180Z,9.20
2023-08-21T02:45:25.871Z,8.77
2023-08-21T02:46:57.348Z,9.23
2023-08-21T02:48:29.160Z,9.25
2023-08-21T02:50:00.786Z,9.00
2023-08-21T02:51:32.235Z,8.82
2023-08-21T02:53:03.887Z,8.23
2023-08-21T02:54:35.326Z,10.13
2023-08-21T02:56:06.802Z,9.27
2023-08-21T02:57:38.380Z,8.98
2023-08-21T02:59:09.930Z,10.55
2023-08-21T03:00:41.466Z,9.15
2023-08-21T03:02:13.114Z,8.98
2023-08-21T03:03:44.617Z,8.45
2023-08-21T03:05:16.161Z,9.82
2023-08-21T03:06:47.730Z,9.48
2023-08-21T03:08:19.412Z,9.45
2023-08-21T03:09:51.169Z,9.20
2023-08-21T03:11:22.632Z,9.82
2023-08-21T03:12:54.238Z,8.98
2023-08-21T03:14:27.469Z,8.85
2023-08-21T03:15:58.912Z,9.50
2023-08-21T03:17:31.786Z,9.13
2023-08-21T03:19:03.334Z,10.48
2023-08-21T03:20:36.126Z,9.68
2023-08-21T03:22:07.740Z,9.27
2023-08-21T03:23:39.302Z,11.55
2023-08-21T03:25:11.052Z,9.30
2023-08-21T03:26:42.916Z,9.63
2023-08-21T03:28:14.444Z,9.32
2023-08-21T03:29:49.501Z,9.95
2023-08-21T03:31:21.069Z,9.00
2023-08-21T03:32:52.624Z,9.82
2023-08-21T03:34:24.527Z,8.85
2023-08-21T03:35:59.912Z,8.85
2023-08-21T03:37:31.496Z,9.35
2023-08-21T03:39:03.356Z,9.23
2023-08-21T03:40:37.160Z,10.18
2023-08-21T03:42:08.667Z,10.00
2023-08-21T03:43:40.139Z,9.48
2023-08-21T03:45:12.101Z,10.27
2023-08-21T03:46:44.348Z,9.93
2023-08-21T03:48:15.843Z,9.32
2023-08-21T03:49:49.231Z,9.35
2023-08-21T03:51:20.941Z,8.95
2023-08-21T03:52:52.442Z,9.57
2023-08-21T03:54:23.996Z,8.77
2023-08-21T03:55:55.465Z,8.82
2023-08-21T03:57:27.025Z,9.23
2023-08-21T03:58:58.601Z,9.77
2023-08-21T04:00:30.093Z,9.35
2023-08-21T04:02:01.748Z,8.38
2023-08-21T04:03:34.450Z,9.85
2023-08-21T04:05:06.287Z,9.45
2023-08-21T04:06:37.819Z,8.93
2023-08-21T04:08:09.421Z,9.38
2023-08-21T04:09:40.981Z,8.98
2023-08-21T04:11:12.463Z,9.07
2023-08-21T04:12:43.946Z,9.18
2023-08-21T04:14:15.484Z,9.07
2023-08-21T04:15:47.197Z,8.45
2023-08-21T04:17:22.601Z,9.98
2023-08-21T04:18:54.286Z,9.77
2023-08-21T04:20:25.931Z,9.45
2023-08-21T04:21:57.442Z,9.00
2023-08-21T04:23:28.937Z,9.82
2023-08-21T04:25:01.082Z,9.68
2023-08-21T04:26:32.566Z,10.02
2023-08-21T04:28:04.181Z,9.52
2023-08-21T04:29:39.544Z,9.05
2023-08-21T04:31:11.701Z,9.80
2023-08-21T04:32:43.409Z,9.38
2023-08-21T04:34:15.205Z,9.52
2023-08-21T04:35:46.742Z,9.32
2023-08-21T04:37:18.234Z,10.23
2023-08-21T04:38:49.728Z,9.45
2023-08-21T04:40:22.542Z,9.55
2023-08-21T04:41:54.452Z,10.43
2023-08-21T04:43:25.900Z,9.43
2023-08-21T04:44:57.371Z,9.73
2023-08-21T04:46:28.881Z,10.02
2023-08-21T04:48:00.929Z,10.63
2023-08-21T04:49:32.392Z,9.25
2023-08-21T04:51:03.899Z,10.27
2023-08-21T04:52:35.356Z,9.85
2023-08-21T04:54:06.976Z,10.15
2023-08-21T04:55:41.291Z,9.75
2023-08-21T04:57:13.207Z,10.43
2023-08-21T04:58:45.166Z,10.95
2023-08-21T05:00:17.044Z,9.90
2023-08-21T05:01:50.080Z,10.15
2023-08-21T05:03:21.919Z,9.63
2023-08-21T05:04:53.431Z,10.13
2023-08-21T05:06:25.069Z,10.10
2023-08-21T05:07:56.990Z,10.18
2023-08-21T05:09:28.806Z,9.45
2023-08-21T05:11:00.439Z,10.32
2023-08-21T05:12:36.345Z,10.52
2023-08-21T05:14:08.533Z,10.48
2023-08-21T05:15:40.197Z,11.10
2023-08-21T05:17:11.968Z,10.52
2023-08-21T05:18:43.528Z,12.05
2023-08-21T05:20:16.011Z,10.18
2023-08-21T05:21:48.776Z,9.95
2023-08-21T05:23:20.321Z,10.05
2023-08-21T05:24:54.070Z,10.85
2023-08-21T05:26:26.427Z,10.02
2023-08-21T05:27:58.008Z,10.65
2023-08-21T05:29:29.410Z,12.02
2023-08-21T05:31:01.313Z,10.82
2023-08-21T05:32:38.646Z,11.40
2023-08-21T05:34:10.343Z,10.63
2023-08-21T05:35:42.154Z,10.85
2023-08-21T05:37:15.360Z,11.15
2023-08-21T05:38:47.004Z,11.93
2023-08-21T05:40:18.431Z,10.68
2023-08-21T05:41:50.634Z,9.82
2023-08-21T05:43:22.100Z,10.38
2023-08-21T05:44:53.533Z,11.15
2023-08-21T05:46:25.398Z,9.63
2023-08-21T05:47:57.016Z,11.52
2023-08-21T05:49:28.454Z,10.93
2023-08-21T05:51:00.181Z,10.70
2023-08-21T05:52:31.593Z,11.95
2023-08-21T05:54:03.053Z,10.73
2023-08-21T05:55:34.808Z,10.85
2023-08-21T05:57:06.611Z,10.40
2023-08-21T05:58:39.926Z,10.88
2023-08-21T06:00:13.333Z,10.88
2023-08-21T06:01:47.496Z,10.70
2023-08-21T06:03:19.212Z,10.25
2023-08-21T06:05:04.553Z,11.18
2023-08-21T06:06:36.097Z,10.70
2023-08-21T06:08:09.786Z,10.93
2023-08-21T06:09:42.253Z,11.32
2023-08-21T06:11:15.719Z,12.02
2023-08-21T06:12:47.236Z,10.07
2023-08-21T06:14:18.710Z,11.20
2023-08-21T06:15:50.305Z,10.05
2023-08-21T06:17:21.798Z,11.02
2023-08-21T06:18:53.263Z,10.10
2023-08-21T06:20:24.768Z,10.73
2023-08-21T06:21:56.827Z,10.90
2023-08-21T06:23:28.206Z,10.70
2023-08-21T06:24:59.701Z,11.07
2023-08-21T06:26:31.259Z,11.07
2023-08-21T06:28:03.110Z,11.00
2023-08-21T06:29:34.653Z,10.48
2023-08-21T06:31:08.471Z,10.23
2023-08-21T06:32:40.741Z,10.13
2023-08-21T06:34:12.410Z,10.65
2023-08-21T06:35:44.927Z,11.48
2023-08-21T06:37:16.398Z,11.70
2023-08-21T06:38:47.906Z,10.80
2023-08-21T06:40:19.435Z,9.85
2023-08-21T06:41:52.214Z,11.23
2023-08-21T06:43:24.528Z,10.13
2023-08-21T06:44:56.054Z,10.55
2023-08-21T06:46:27.980Z,11.00
2023-08-21T06:47:59.530Z,10.10
2023-08-21T06:49:30.994Z,11.55
2023-08-21T06:51:03.556Z,10.90
2023-08-21T06:52:34.973Z,11.02
2023-08-21T06:54:06.505Z,9.43
2023-08-21T06:55:37.955Z,11.35
2023-08-21T06:57:09.415Z,11.30
2023-08-21T06:58:40.846Z,11.02
2023-08-21T07:00:12.599Z,12.68
2023-08-21T07:01:44.036Z,10.63
2023-08-21T07:03:15.581Z,11.43
2023-08-21T07:04:47.061Z,10.57
2023-08-21T07:06:18.701Z,10.10
2023-08-21T07:07:50.098Z,10.20
2023-08-21T07:09:21.590Z,10.25
2023-08-21T07:10:53.572Z,9.90
2023-08-21T07:12:25.011Z,11.48
2023-08-21T07:13:56.553Z,10.38
2023-08-21T07:15:27.995Z,10.57
2023-08-21T07:16:59.525Z,10.80
2023-08-21T07:18:33.085Z,11.13
2023-08-21T07:20:05.227Z,10.20
2023-08-21T07:21:39.285Z,10.27
2023-08-21T07:23:10.737Z,11.00
2023-08-21T07:24:42.180Z,10.55
2023-08-21T07:26:13.614Z,10.45
2023-08-21T07:27:45.091Z,10.20
2023-08-21T07:29:16.581Z,11.02
2023-08-21T07:30:48.198Z,10.70
2023-08-21T07:32:19.796Z,10.20
2023-08-21T07:33:51.356Z,10.60
2023-08-21T07:35:22.913Z,11.00
2023-08-21T07:36:54.364Z,9.82
2023-08-21T07:38:26.397Z,10.48
2023-08-21T07:39:58.916Z,9.43
2023-08-21T07:41:30.545Z,10.85
2023-08-21T07:43:01.993Z,10.20
2023-08-21T07:44:33.688Z,10.85
2023-08-21T07:46:05.859Z,9.95
2023-08-21T07:47:38.074Z,9.70
2023-08-21T07:49:09.791Z,10.10
2023-08-21T07:50:41.426Z,11.02
2023-08-21T07:52:12.904Z,9.68
2023-08-21T07:53:44.460Z,9.13
2023-08-21T07:55:15.885Z,10.23
2023-08-21T07:56:47.372Z,10.68
2023-08-21T07:58:19.643Z,9.52
2023-08-21T07:59:52.927Z,9.25
2023-08-21T08:01:25.231Z,9.35
2023-08-21T08:02:56.721Z,9.68
2023-08-21T08:04:28.570Z,9.45
2023-08-21T08:06:00.248Z,9.00
2023-08-21T08:07:31.680Z,9.20
2023-08-21T08:09:04.724Z,8.63
2023-08-21T08:10:40.173Z,9.65
2023-08-21T08:13:43.200Z,9.25
2023-08-21T08:15:14.798Z,10.13
2023-08-21T08:16:46.510Z,10.63
2023-08-21T08:18:18.086Z,9.43
2023-08-21T08:19:49.573Z,9.43
2023-08-21T08:21:21.006Z,9.45
2023-08-21T08:22:52.732Z,9.20
2023-08-21T08:24:24.243Z,9.75
2023-08-21T08:25:55.732Z,8.98
2023-08-21T08:27:27.144Z,10.38
2023-08-21T08:31:17.442Z,8.60
2023-08-21T08:32:49.007Z,9.57
2023-08-21T08:34:21.658Z,8.93
2023-08-21T08:35:53.169Z,8.77
2023-08-21T08:37:24.656Z,8.43
2023-08-21T08:38:56.036Z,9.98
2023-08-21T08:40:27.694Z,9.93
2023-08-21T08:42:00.926Z,10.27
2023-08-21T08:43:33.693Z,9.60
2023-08-21T08:45:05.408Z,9.65
2023-08-21T08:46:38.845Z,8.82
2023-08-21T08:48:11.206Z,9.27
2023-08-21T08:49:42.737Z,9.00
2023-08-21T08:51:14.336Z,9.30
2023-08-21T08:52:46.362Z,9.52
2023-08-21T08:54:17.977Z,10.02
2023-08-21T08:55:49.666Z,9.32
2023-08-21T08:57:21.129Z,9.73
2023-08-21T08:58:52.579Z,9.98
2023-08-21T09:00:24.122Z,9.30
2023-08-21T09:01:55.689Z,10.15
2023-08-21T09:03:27.291Z,8.25
2023-08-21T09:04:59.460Z,9.60
2023-08-21T09:06:31.372Z,8.57
2023-08-21T09:08:03.306Z,8.75
2023-08-21T09:09:41.601Z,9.60
2023-08-21T09:11:13.136Z,8.77
2023-08-21T09:12:46.453Z,8.50
2023-08-21T09:14:26.718Z,8.30
2023-08-21T09:15:59.665Z,8.98
2023-08-21T09:17:31.357Z,7.78
2023-08-21T09:19:02.916Z,9.90
2023-08-21T09:20:37.826Z,8.07
2023-08-21T09:22:13.786Z,8.02
2023-08-21T09:23:46.155Z,8.07
2023-08-21T09:25:19.511Z,8.48
2023-08-21T09:26:51.328Z,8.68
2023-08-21T09:28:23.591Z,8.70
2023-08-21T09:29:55.085Z,8.95
2023-08-21T09:31:33.543Z,8.55
2023-08-21T09:33:06.106Z,9.57
2023-08-21T09:34:38.360Z,9.00
2023-08-21T09:36:12.408Z,9.05
2023-08-21T09:37:47.196Z,8.88
2023-08-21T09:39:18.689Z,8.93
2023-08-21T09:40:54.655Z,8.65
2023-08-21T09:42:26.518Z,8.57
2023-08-21T09:44:01.450Z,9.43
2023-08-21T09:45:34.276Z,8.57
2023-08-21T09:47:08.627Z,8.48
2023-08-21T09:48:40.228Z,9.07
2023-08-21T09:50:11.942Z,8.95
2023-08-21T09:51:45.742Z,8.63
2023-08-21T09:53:17.248Z,8.57
2023-08-21T09:54:48.909Z,8.27
2023-08-21T09:56:20.831Z,8.43
2023-08-21T09:57:59.538Z,8.70
2023-08-21T09:59:32.242Z,8.77
2023-08-21T10:01:09.859Z,8.68
2023-08-21T10:02:42.321Z,8.05
2023-08-21T10:04:14.420Z,9.50
2023-08-21T10:05:47.020Z,8.85
2023-08-21T10:07:21.769Z,9.35
2023-08-21T10:08:54.934Z,9.82
2023-08-21T10:10:27.051Z,8.85
2023-08-21T10:11:58.705Z,9.50
2023-08-21T10:13:30.360Z,8.05
2023-08-21T10:15:02.235Z,8.75
2023-08-21T10:16:33.951Z,9.60
2023-08-21T10:18:21.652Z,8.60
2023-08-21T10:19:57.003Z,8.68
2023-08-21T10:23:03.360Z,7.38
2023-08-21T10:24:37.411Z,8.75
2023-08-21T10:26:11.047Z,9.82
2023-08-21T10:27:43.751Z,7.57
2023-08-21T10:29:15.227Z,8.55
2023-08-21T10:30:46.644Z,8.48
2023-08-21T10:32:23.300Z,8.05
2023-08-21T10:33:54.807Z,8.27
2023-08-21T10:35:30.523Z,8.27
2023-08-21T10:37:07.195Z,7.63
2023-08-21T10:38:58.632Z,8.25
2023-08-21T10:40:30.194Z,7.40
2023-08-21T10:42:01.708Z,7.90
2023-08-21T10:43:46.866Z,7.43
2023-08-21T10:45:18.367Z,7.57
2023-08-21T10:46:53.512Z,8.63
2023-08-21T10:48:24.959Z,7.75
2023-08-21T10:49:57.316Z,8.00
2023-08-21T10:51:30.265Z,7.05
2023-08-21T10:53:01.953Z,7.22
2023-08-21T10:54:46.181Z,7.45
2023-08-21T10:56:17.627Z,7.47
2023-08-21T10:57:49.726Z,7.43
2023-08-21T10:59:21.402Z,7.90
2023-08-21T11:00:59.854Z,7.68
2023-08-21T11:02:32.235Z,6.97
2023-08-21T11:04:04.955Z,6.82
2023-08-21T11:05:36.596Z,7.43
2023-08-21T11:07:08.699Z,7.47
2023-08-21T11:08:40.176Z,7.45
2023-08-21T11:10:18.902Z,7.15
2023-08-21T11:11:50.532Z,7.68
2023-08-21T11:13:24.427Z,7.38
2023-08-21T11:14:55.938Z,7.07
2023-08-21T11:16:27.800Z,6.78
2023-08-21T11:18:00.703Z,7.25
2023-08-21T11:19:33.432Z,7.70
2023-08-21T11:21:09.849Z,7.05
2023-08-21T11:22:41.870Z,7.20
2023-08-21T11:24:13.432Z,7.03
2023-08-21T11:25:44.971Z,6.95
2023-08-21T11:27:17.333Z,7.15
2023-08-21T11:28:49.292Z,6.60
2023-08-21T11:30:23.135Z,6.82
2023-08-21T11:31:55.728Z,6.65
2023-08-21T11:33:28.317Z,6.68
2023-08-21T11:35:00.370Z,7.20
2023-08-21T11:36:32.779Z,7.10
2023-08-21T11:38:06.517Z,7.57
2023-08-21T11:39:39.656Z,7.05
2023-08-21T11:41:11.291Z,7.53
2023-08-21T11:42:42.912Z,6.95
2023-08-21T11:44:17.146Z,7.32
2023-08-21T11:45:58.687Z,7.68
2023-08-21T11:47:32.147Z,7.43
2023-08-21T11:49:05.643Z,6.75
2023-08-21T11:50:37.142Z,6.85
2023-08-21T11:52:08.682Z,7.93
2023-08-21T11:53:43.847Z,6.85
2023-08-21T11:56:47.983Z,7.03
2023-08-21T11:58:20.184Z,7.35
2023-08-21T11:59:52.727Z,6.90
2023-08-21T12:01:24.417Z,8.32
2023-08-21T12:03:00.448Z,6.97
2023-08-21T12:04:32.218Z,7.05
2023-08-21T12:06:07.761Z,7.20
2023-08-21T12:07:39.531Z,6.05
2023-08-21T12:09:11.424Z,6.68
2023-08-21T12:10:43.216Z,6.95
2023-08-21T12:12:15.144Z,7.88
2023-08-21T12:13:46.988Z,7.22
2023-08-21T12:15:18.912Z,7.50
2023-08-21T12:16:50.449Z,6.57
2023-08-21T12:18:22.288Z,7.30
2023-08-21T12:19:54.168Z,6.50
2023-08-21T12:21:26.545Z,6.78
2023-08-21T12:22:58.317Z,7.15
2023-08-21T12:24:29.853Z,7.53
2023-08-21T12:26:01.719Z,6.68
2023-08-21T12:27:33.306Z,7.38
2023-08-21T12:29:04.813Z,6.45
2023-08-21T12:30:36.501Z,6.60
2023-08-21T12:32:08.144Z,6.32
2023-08-21T12:33:39.824Z,7.25
2023-08-21T12:35:13.454Z,6.68
2023-08-21T12:36:45.178Z,6.35
2023-08-21T12:38:17.164Z,8.00
2023-08-21T12:39:49.022Z,6.93
2023-08-21T12:41:20.667Z,7.13
2023-08-21T12:42:52.154Z,7.82
2023-08-21T12:44:23.881Z,7.03
2023-08-21T12:45:56.504Z,6.95
2023-08-21T12:47:28.185Z,7.20
2023-08-21T12:49:01.283Z,6.90
2023-08-21T12:50:32.810Z,6.55
2023-08-21T12:52:07.872Z,6.45
2023-08-21T12:53:41.074Z,6.70
2023-08-21T12:55:12.815Z,7.13
2023-08-21T12:56:44.312Z,7.25
2023-08-21T12:58:15.873Z,6.22
2023-08-21T12:59:47.340Z,6.55
2023-08-21T13:01:18.982Z,7.03
2023-08-21T13:02:51.056Z,6.78
2023-08-21T13:04:22.839Z,7.30
2023-08-21T13:05:54.682Z,6.82
2023-08-21T13:07:26.691Z,6.40
2023-08-21T13:08:58.611Z,6.82
2023-08-21T13:10:30.302Z,6.90
2023-08-21T13:12:02.039Z,7.13
2023-08-21T13:13:34.774Z,6.07
2023-08-21T13:15:08.767Z,5.65
2023-08-21T13:16:40.470Z,7.03
2023-08-21T13:18:13.055Z,5.97
2023-08-21T13:19:45.005Z,6.40
2023-08-21T13:21:16.800Z,6.35
2023-08-21T13:22:50.204Z,6.45
2023-08-21T13:24:22.481Z,6.53
2023-08-21T13:25:54.277Z,6.40
2023-08-21T13:27:26.154Z,6.47
2023-08-21T13:28:57.983Z,6.35
2023-08-21T13:30:29.780Z,6.13
2023-08-21T13:32:01.507Z,6.03
2023-08-21T13:33:33.259Z,6.55
2023-08-21T13:35:09.597Z,5.97
2023-08-21T13:36:41.724Z,6.50
2023-08-21T13:38:14.194Z,6.40
2023-08-21T13:39:46.454Z,7.07
2023-08-21T13:41:17.968Z,6.93
2023-08-21T13:42:49.784Z,7.65
2023-08-21T13:44:21.381Z,6.43
2023-08-21T13:45:53.356Z,6.10
2023-08-21T13:47:25.172Z,6.35
2023-08-21T13:48:56.767Z,6.70
2023-08-21T13:50:28.289Z,6.50
2023-08-21T13:51:59.959Z,6.55
2023-08-21T13:53:31.541Z,6.40
2023-08-21T13:55:06.516Z,6.35
2023-08-21T13:56:38.174Z,6.25
2023-08-21T13:58:09.905Z,6.95
2023-08-21T13:59:42.161Z,6.93
2023-08-21T14:01:13.838Z,6.57
2023-08-21T14:02:45.539Z,6.68
2023-08-21T14:04:17.128Z,6.65
2023-08-21T14:05:48.609Z,6.75
2023-08-21T14:07:20.086Z,6.70
2023-08-21T14:08:51.551Z,6.43
2023-08-21T14:10:23.108Z,6.72
2023-08-21T14:11:54.638Z,6.30
2023-08-21T14:13:26.123Z,5.50
2023-08-21T14:14:57.676Z,6.70
2023-08-21T14:16:29.257Z,6.60
2023-08-21T14:18:01.010Z,6.15
2023-08-21T14:19:32.776Z,6.22
2023-08-21T14:21:04.700Z,6.70
2023-08-21T14:22:36.407Z,6.10
2023-08-21T14:24:08.870Z,7.13
2023-08-21T14:25:40.315Z,6.07
2023-08-21T14:27:12.217Z,6.55
2023-08-21T14:28:45.645Z,6.80
2023-08-21T14:30:17.077Z,6.78
2023-08-21T14:31:49.603Z,6.63
2023-08-21T14:33:22.289Z,7.60
2023-08-21T14:34:54.701Z,5.82
2023-08-21T14:36:26.136Z,5.80
2023-08-21T14:37:57.718Z,6.10
2023-08-21T14:39:29.704Z,6.57
2023-08-21T14:41:01.415Z,5.88
2023-08-21T14:42:32.988Z,6.75
2023-08-21T14:44:05.048Z,6.18
2023-08-21T14:45:36.523Z,7.60
2023-08-21T14:47:08.830Z,6.95
2023-08-21T14:48:40.665Z,6.32
2023-08-21T14:50:12.205Z,6.53
2023-08-21T14:51:43.820Z,6.20
2023-08-21T14:53:15.328Z,6.00
2023-08-21T14:54:47.168Z,6.05
2023-08-21T14:56:18.798Z,6.05
2023-08-21T14:57:50.324Z,7.55
2023-08-21T14:59:21.865Z,6.75
2023-08-21T15:00:56.812Z,7.75
2023-08-21T15:02:28.403Z,6.40
2023-08-21T15:03:59.881Z,6.50
2023-08-21T15:05:31.456Z,7.00
2023-08-21T15:07:02.960Z,6.60
2023-08-21T15:08:34.877Z,6.05
2023-08-21T15:10:06.754Z,6.40
2023-08-21T15:11:38.286Z,6.65
2023-08-21T15:13:09.803Z,7.88
2023-08-21T15:14:41.220Z,6.90
2023-08-21T15:16:12.936Z,6.28
2023-08-21T15:17:44.518Z,6.97
2023-08-21T15:19:16.054Z,6.18
2023-08-21T15:20:47.623Z,6.53
2023-08-21T15:22:19.353Z,6.20
2023-08-21T15:23:51.660Z,7.00
2023-08-21T15:25:23.201Z,7.70
2023-08-21T15:26:54.837Z,7.38
2023-08-21T15:28:29.797Z,7.32
2023-08-21T15:30:01.472Z,6.93
2023-08-21T15:31:33.437Z,6.75
2023-08-21T15:33:05.045Z,7.15
2023-08-21T15:34:36.556Z,7.78
2023-08-21T15:36:08.133Z,7.38
2023-08-21T15:37:39.748Z,7.28
2023-08-21T15:39:11.196Z,7.03
2023-08-21T15:40:44.991Z,7.22
2023-08-21T15:42:16.778Z,7.28
2023-08-21T15:43:48.285Z,7.32
2023-08-21T15:45:19.848Z,7.47
2023-08-21T15:47:01.446Z,7.07
2023-08-21T15:48:42.845Z,7.05
2023-08-21T15:50:14.277Z,7.85
2023-08-21T15:51:45.984Z,7.25
2023-08-21T15:53:17.467Z,7.85
2023-08-21T15:54:52.434Z,6.75
2023-08-21T15:56:27.078Z,6.95
2023-08-21T15:57:58.508Z,7.57
2023-08-21T15:59:29.951Z,7.10
2023-08-21T16:01:01.968Z,7.32
2023-08-21T16:02:33.616Z,7.05
2023-08-21T16:04:05.691Z,7.18
2023-08-21T16:05:37.737Z,6.78
2023-08-21T16:07:12.536Z,7.55
2023-08-21T16:08:44.394Z,7.75
2023-08-21T16:10:16.205Z,7.50
2023-08-21T16:11:47.901Z,7.65
2023-08-21T16:13:19.794Z,7.55
2023-08-21T16:14:51.482Z,6.97
2023-08-21T16:16:23.092Z,8.20
2023-08-21T16:17:55.010Z,7.63
2023-08-21T16:19:26.623Z,7.05
2023-08-21T16:20:58.130Z,6.75
2023-08-21T16:22:29.731Z,7.65
2023-08-21T16:24:01.936Z,7.57
2023-08-21T16:25:33.537Z,8.25
2023-08-21T16:27:05.126Z,6.78
2023-08-21T16:28:36.555Z,6.90
2023-08-21T16:30:08.659Z,7.32
2023-08-21T16:31:40.303Z,6.85
2023-08-21T16:33:11.865Z,7.57
2023-08-21T16:34:43.581Z,7.38
2023-08-21T16:36:15.060Z,6.63
2023-08-21T16:37:47.203Z,8.27
2023-08-21T16:39:19.222Z,7.25
2023-08-21T16:40:50.694Z,7.25
2023-08-21T16:42:22.164Z,8.20
2023-08-21T16:43:53.687Z,6.97
2023-08-21T16:45:25.311Z,7.07
2023-08-21T16:46:56.790Z,7.32
2023-08-21T16:48:28.302Z,7.05
2023-08-21T16:50:02.955Z,7.68
2023-08-21T16:53:21.289Z,6.90
2023-08-21T16:54:54.764Z,7.45
2023-08-21T16:56:26.732Z,7.50
2023-08-21T16:57:58.278Z,8.20
2023-08-21T16:59:29.876Z,7.07
2023-08-21T17:01:01.574Z,7.32
2023-08-21T17:02:33.122Z,7.22
2023-08-21T17:04:04.970Z,6.75
2023-08-21T17:05:36.870Z,6.88
2023-08-21T17:07:08.321Z,7.95
2023-08-21T17:08:40.008Z,7.50
2023-08-21T17:10:12.162Z,7.13
2023-08-21T17:11:43.757Z,7.53
2023-08-21T17:13:15.216Z,7.53
2023-08-21T17:14:46.709Z,7.13
2023-08-21T17:16:18.296Z,6.72
2023-08-21T17:17:50.019Z,7.15
2023-08-21T17:19:21.581Z,7.88
2023-08-21T17:20:53.656Z,7.20
2023-08-21T17:22:25.509Z,6.93
2023-08-21T17:23:57.192Z,7.13
2023-08-21T17:25:28.902Z,6.90
2023-08-21T17:27:01.930Z,6.60
2023-08-21T17:28:33.735Z,7.57
2023-08-21T17:30:07.035Z,7.68
2023-08-21T17:31:38.743Z,6.45
2023-08-21T17:33:11.269Z,6.90
2023-08-21T17:34:43.006Z,6.45
2023-08-21T17:36:15.028Z,6.47
2023-08-21T17:37:46.682Z,6.80
2023-08-21T17:39:18.780Z,7.75
2023-08-21T17:40:50.397Z,6.82
2023-08-21T17:42:22.231Z,6.68
2023-08-21T17:43:53.946Z,6.22
2023-08-21T17:45:25.759Z,6.90
2023-08-21T17:46:57.743Z,7.07
2023-08-21T17:48:29.492Z,6.70
2023-08-21T17:50:00.989Z,6.82
2023-08-21T17:51:33.392Z,6.13
2023-08-21T17:53:05.054Z,6.50
2023-08-21T17:54:36.654Z,6.20
2023-08-21T17:56:08.339Z,6.82
2023-08-21T17:57:42.516Z,7.07
2023-08-21T17:59:14.735Z,6.82
2023-08-21T18:00:46.340Z,6.78
2023-08-21T18:02:27.359Z,6.57
2023-08-21T18:03:59.615Z,6.95
2023-08-21T18:05:31.942Z,7.15
2023-08-21T18:07:03.587Z,6.50
2023-08-21T18:08:35.102Z,7.07
2023-08-21T18:10:07.192Z,7.50
2023-08-21T18:11:39.043Z,7.70
2023-08-21T18:13:10.629Z,7.53
2023-08-21T18:14:42.324Z,7.00
2023-08-21T18:16:13.918Z,7.57
2023-08-21T18:17:45.499Z,7.53
2023-08-21T18:19:17.019Z,8.07
2023-08-21T18:20:50.140Z,7.53
2023-08-21T18:22:21.572Z,7.47
2023-08-21T18:23:53.262Z,7.25
2023-08-21T18:25:24.989Z,8.00
2023-08-21T18:26:56.589Z,7.07
2023-08-21T18:28:28.204Z,7.75
2023-08-21T18:29:59.893Z,7.20
2023-08-21T18:31:32.101Z,6.65
2023-08-21T18:33:04.333Z,6.93
2023-08-21T18:34:36.349Z,7.45
2023-08-21T18:36:07.946Z,7.20
2023-08-21T18:37:39.807Z,7.25
2023-08-21T18:39:13.282Z,6.78
2023-08-21T18:40:45.414Z,7.30
2023-08-21T18:42:17.150Z,8.23
2023-08-21T18:43:48.800Z,7.53
2023-08-21T18:45:20.519Z,8.00
2023-08-21T18:46:52.627Z,7.22
2023-08-21T18:48:24.588Z,7.18
2023-08-21T18:49:56.310Z,7.30
2023-08-21T18:51:28.040Z,7.03
2023-08-21T18:52:59.835Z,7.15
2023-08-21T18:54:31.550Z,7.65
2023-08-21T18:56:03.990Z,7.20
2023-08-21T18:57:35.599Z,7.90
2023-08-21T18:59:07.311Z,7.35
2023-08-21T19:00:39.104Z,7.63
2023-08-21T19:02:10.911Z,6.38
2023-08-21T19:03:42.685Z,7.50
2023-08-21T19:05:14.430Z,7.28
2023-08-21T19:06:59.891Z,6.93
2023-08-21T19:08:36.210Z,6.78
2023-08-21T19:10:08.664Z,7.25
2023-08-21T19:11:40.680Z,7.20
2023-08-21T19:13:12.300Z,6.90
2023-08-21T19:14:43.784Z,7.45
2023-08-21T19:16:15.574Z,8.65
2023-08-21T19:17:47.553Z,7.53
2023-08-21T19:19:19.965Z,7.93
2023-08-21T19:20:51.781Z,9.07
2023-08-21T19:22:24.163Z,8.57
2023-08-21T19:23:55.832Z,8.00
2023-08-21T19:25:29.627Z,7.40
2023-08-21T19:27:01.211Z,8.00
2023-08-21T19:28:32.861Z,9.10
2023-08-21T19:30:06.849Z,7.53
2023-08-21T19:31:38.501Z,7.80
2023-08-21T19:33:10.251Z,7.85
2023-08-21T19:34:41.973Z,8.40
2023-08-21T19:36:14.261Z,8.80
2023-08-21T19:37:45.812Z,7.68
2023-08-21T19:39:17.454Z,7.60
2023-08-21T19:40:50.629Z,6.45
2023-08-21T19:42:23.603Z,8.02
2023-08-21T19:43:55.552Z,6.65
2023-08-21T19:45:27.112Z,7.32
2023-08-21T19:46:59.055Z,7.80
2023-08-21T19:48:30.836Z,8.90
2023-08-21T19:50:02.948Z,7.93
2023-08-21T19:51:34.698Z,7.85
2023-08-21T19:53:06.328Z,7.80
2023-08-21T19:54:40.635Z,7.05
2023-08-21T19:56:12.139Z,7.32
2023-08-21T19:57:43.840Z,7.28
2023-08-21T19:59:15.773Z,7.82
2023-08-21T20:00:47.827Z,7.43
2023-08-21T20:02:19.741Z,7.60
2023-08-21T20:03:51.705Z,7.35
2023-08-21T20:05:23.571Z,7.90
2023-08-21T20:06:55.626Z,7.00
2023-08-21T20:08:27.780Z,7.22
2023-08-21T20:09:59.466Z,7.15
2023-08-21T20:11:31.247Z,8.02
2023-08-21T20:13:02.894Z,7.93
2023-08-21T20:14:34.529Z,7.78
2023-08-21T20:16:09.435Z,7.70
2023-08-21T20:17:41.729Z,7.10
2023-08-21T20:19:13.996Z,7.60
2023-08-21T20:20:46.547Z,8.45
2023-08-21T20:22:18.255Z,7.53
2023-08-21T20:23:49.849Z,7.32
2023-08-21T20:25:21.536Z,7.90
2023-08-21T20:26:53.555Z,7.10
2023-08-21T20:28:25.716Z,7.13
2023-08-21T20:29:57.314Z,7.68